Aviation Digital Data Service (ADDS)

Output produced by METARs form (0539 UTC 19 March 2019)
found at http://www.aviationweather.gov/metar/data/
 
Forecast for: LEHC (HUESCA-PIRINEOS , ES)
Text: TAF LEHC 190200Z 1903/2003 28010KT 9999 FEW040 TX17/1914Z TN03/1906Z
Forecast period: 0300 to 1000 UTC 19 March 2019
Forecast type: FROM: standard forecast or significant change
Winds: from the W (280 degrees) at 12 MPH (10 knots; 5.1 m/s)
Visibility: 6 or more miles 10+ km)
Ceiling: at least 12,000 feet AGL
Clouds: few clouds at 4000 feet AGL
Weather: no significant weather forecast for this period
Text: BECMG 1910/1912 VRB04KT
Forecast period: 1000 UTC 19 March 2019 to 0300 UTC 20 March 2019
Forecast type: BECOMING: Conditions expected to become as follows by 1200 UTC 19 March 2019
Winds: variable direction winds at 5 MPH (4 knots; 2.1 m/s)
Visibility: 6 or more miles 10+ km)
Ceiling: at least 12,000 feet AGL
Clouds: few clouds at 4000 feet AGL
Weather: no significant weather forecast for this period
Text: TEMPO 1914/1920 05012KT
Forecast period: 1400 to 2000 UTC 19 March 2019
Forecast type: TEMPORARY: The following changes expected for less than half the time period
Winds: from the NE (50 degrees) at 14 MPH (12 knots; 6.2 m/s)
Visibility: missing
Ceiling: unknown
Clouds: missing
Weather: no significant weather forecast for this period